Terminal Aerodrome Forecast
Issued by NWS

Home | Current Version | Previous Version | Text Only | Print | Product List | Glossary On
Versions: 1 2 3 4 5 6 7 8 9 10 11 12 13 14 15 16 17 18 19 20 21 22 23 24 25 26 27 28 29 30 31 32 33 34 35 36 37 38 39 40 41 42 43 44 45 46 47 48 49 50
000
FTUS43 KMKX 221352 AAA
TAFUES
TAF AMD
KUES 221352Z 2214/2312 22010KT 3SM BR OVC008
      TEMPO 2214/2216 1 1/2SM BR OVC003
     FM221600 22009KT 3SM -DZ BR OVC005
     FM221800 21009KT 6SM -DZ BR OVC008
     FM230300 21008KT 6SM BR OVC010
     FM230600 20009KT 6SM -RA BR OVC008=

USA.gov is the U.S. government's official web portal to all federal, state and local government web resources and services.